createdAt,value
2023-02-01T00:00:09.907Z,1032.5
2023-02-01T00:05:33.207Z,1032.6
2023-02-01T00:11:02.173Z,1032.4
2023-02-01T00:16:31.823Z,1032.4
2023-02-01T00:22:19.522Z,1032.4
2023-02-01T00:27:41.353Z,1032.3
2023-02-01T00:33:14.287Z,1032.2
2023-02-01T00:38:37.323Z,1032.2
2023-02-01T00:44:24.705Z,1032
2023-02-01T00:50:08.520Z,1032.1
2023-02-01T00:55:27.357Z,1032.2
2023-02-01T01:01:16.079Z,1032.2
2023-02-01T01:06:26.451Z,1032.1
2023-02-01T01:11:57.027Z,1032.1
2023-02-01T01:17:31.118Z,1032.1
2023-02-01T01:23:23.994Z,1032.1
2023-02-01T01:28:59.877Z,1032
2023-02-01T01:34:23.339Z,1031.9
2023-02-01T01:39:55.386Z,1031.9
2023-02-01T01:45:25.271Z,1031.9
2023-02-01T01:50:44.272Z,1031.9
2023-02-01T01:56:26.721Z,1031.9
2023-02-01T02:02:07.541Z,1031.9
2023-02-01T02:07:49.031Z,1031.9
2023-02-01T02:13:09.680Z,1031.9
2023-02-01T02:18:38.310Z,1031.9
2023-02-01T02:24:17.091Z,1032
2023-02-01T02:29:52.907Z,1032.2
2023-02-01T02:35:22.418Z,1032.2
2023-02-01T02:41:03.740Z,1032.3
2023-02-01T02:46:24.506Z,1032.2
2023-02-01T02:52:03.177Z,1032.2
2023-02-01T02:57:42.891Z,1032
2023-02-01T03:03:14.832Z,1032
2023-02-01T03:08:24.644Z,1032.1
2023-02-01T03:14:04.854Z,1032.1
2023-02-01T03:19:49.847Z,1032.1
2023-02-01T03:24:59.290Z,1032.3
2023-02-01T03:30:37.337Z,1032.2
2023-02-01T03:36:10.967Z,1032.2
2023-02-01T03:41:51.403Z,1032.3
2023-02-01T03:47:30.136Z,1032.2
2023-02-01T03:52:46.809Z,1032.2
2023-02-01T03:58:23.757Z,1032.3
2023-02-01T04:04:11.137Z,1032.2
2023-02-01T04:09:47.413Z,1032.3
2023-02-01T04:15:08.602Z,1032.2
2023-02-01T04:20:29.541Z,1032.4
2023-02-01T04:26:01.965Z,1032.4
2023-02-01T04:31:48.698Z,1032.5
2023-02-01T04:37:16.440Z,1032.4
2023-02-01T04:43:01.868Z,1032.5
2023-02-01T04:48:10.413Z,1032.6
2023-02-01T04:54:05.075Z,1032.8
2023-02-01T04:59:28.446Z,1032.8
2023-02-01T05:04:49.885Z,1033
2023-02-01T05:10:35.850Z,1033
2023-02-01T05:16:09.072Z,1032.9
2023-02-01T05:21:50.039Z,1032.8
2023-02-01T05:27:12.766Z,1032.9
2023-02-01T05:32:33.518Z,1032.7
2023-02-01T05:38:06.248Z,1032.8
2023-02-01T05:43:33.173Z,1033
2023-02-01T05:49:11.421Z,1032.9
2023-02-01T05:55:04.153Z,1032.9
2023-02-01T06:00:23.292Z,1032.9
2023-02-01T06:05:52.432Z,1033
2023-02-01T06:11:32.293Z,1033
2023-02-01T06:17:13.849Z,1033.1
2023-02-01T06:22:38.532Z,1033.1
2023-02-01T06:28:19.385Z,1033
2023-02-01T06:33:35.826Z,1033.4
2023-02-01T06:39:18.072Z,1033.5
2023-02-01T06:44:40.259Z,1033.6
2023-02-01T06:50:29.819Z,1033.4
2023-02-01T06:55:48.218Z,1033.3
2023-02-01T07:01:15.852Z,1033.3
2023-02-01T07:06:51.153Z,1033.3
2023-02-01T07:12:44.086Z,1033.3
2023-02-01T07:18:15.618Z,1033.4
2023-02-01T07:23:31.383Z,1033.4
2023-02-01T07:28:56.175Z,1033.6
2023-02-01T07:34:48.727Z,1033.7
2023-02-01T07:40:22.189Z,1033.7
2023-02-01T07:45:51.071Z,1033.9
2023-02-01T07:51:23.501Z,1033.9
2023-02-01T07:57:07.329Z,1033.8
2023-02-01T08:02:13.423Z,1033.8
2023-02-01T08:07:58.003Z,1033.8
2023-02-01T08:13:42.794Z,1033.8
2023-02-01T08:19:13.993Z,1033.7
2023-02-01T08:24:30.394Z,1033.7
2023-02-01T08:30:12.688Z,1033.6
2023-02-01T08:35:56.285Z,1033.7
2023-02-01T08:41:04.921Z,1033.8
2023-02-01T08:47:01.653Z,1033.8
2023-02-01T08:52:15.940Z,1033.9
2023-02-01T08:57:47.758Z,1034
2023-02-01T09:03:25.099Z,1033.9
2023-02-01T09:09:01.626Z,1033.8
2023-02-01T09:14:47.191Z,1033.5
2023-02-01T09:20:17.957Z,1033.7
2023-02-01T09:31:24.116Z,1033.5
2023-02-01T09:36:46.746Z,1033.5
2023-02-01T09:42:26.187Z,1033.5
2023-02-01T09:48:06.896Z,1033.6
2023-02-01T09:53:26.887Z,1033.7
2023-02-01T09:59:05.008Z,1033.4
2023-02-01T10:04:50.737Z,1033.4
2023-02-01T10:10:10.748Z,1033.4
2023-02-01T10:15:35.813Z,1033.5
2023-02-01T10:21:14.294Z,1033.5
2023-02-01T10:27:01.708Z,1033.4
2023-02-01T10:32:42.047Z,1033.5
2023-02-01T10:37:59.252Z,1033.4
2023-02-01T10:43:55.578Z,1033.3
2023-02-01T10:49:25.273Z,1033.2
2023-02-01T10:55:07.213Z,1033.1
2023-02-01T11:00:14.439Z,1032.9
2023-02-01T11:05:58.119Z,1033
2023-02-01T11:11:23.809Z,1033
2023-02-01T11:17:01.508Z,1033.1
2023-02-01T11:22:35.695Z,1032.7
2023-02-01T11:28:04.165Z,1032.4
2023-02-01T11:34:03.033Z,1032.2
2023-02-01T11:39:25.305Z,1032
2023-02-01T11:44:47.449Z,1031.9
2023-02-01T11:50:48.025Z,1031.7
2023-02-01T11:56:22.160Z,1031.8
2023-02-01T12:01:51.877Z,1031.8
2023-02-01T12:07:08.392Z,1031.9
2023-02-01T12:13:05.790Z,1031.8
2023-02-01T12:18:16.491Z,1031.7
2023-02-01T12:23:51.515Z,1031.6
2023-02-01T12:29:28.791Z,1031.6
2023-02-01T12:35:09.616Z,1031.3
2023-02-01T12:40:47.627Z,1031.3
2023-02-01T12:46:03.995Z,1031.2
2023-02-01T12:51:56.248Z,1031.1
2023-02-01T12:57:24.034Z,1031
2023-02-01T13:03:15.249Z,1030.8
2023-02-01T13:08:34.199Z,1030.3
2023-02-01T13:14:01.871Z,1030.3
2023-02-01T13:19:55.319Z,1029.9
2023-02-01T13:25:04.413Z,1030
2023-02-01T13:30:49.459Z,1029.8
2023-02-01T13:36:40.734Z,1029.6
2023-02-01T13:42:05.538Z,1029.7
2023-02-01T13:47:33.427Z,1029.8
2023-02-01T13:53:13.732Z,1029.8
2023-02-01T13:59:00.777Z,1029.8
2023-02-01T14:04:36.987Z,1029.8
2023-02-01T14:10:04.047Z,1029.8
2023-02-01T14:15:31.455Z,1029.7
2023-02-01T14:21:21.993Z,1029.7
2023-02-01T14:26:29.888Z,1029.8
2023-02-01T14:32:04.675Z,1029.9
2023-02-01T14:37:54.517Z,1029.9
2023-02-01T14:43:32.536Z,1030
2023-02-01T14:48:53.783Z,1030
2023-02-01T14:54:23.114Z,1029.8
2023-02-01T14:59:59.271Z,1029.9
2023-02-01T15:05:35.305Z,1030
2023-02-01T15:11:14.250Z,1030.2
2023-02-01T15:16:59.840Z,1030.2
2023-02-01T15:22:32.902Z,1030.3
2023-02-01T15:28:03.279Z,1030.4
2023-02-01T15:33:21.169Z,1030.6
2023-02-01T15:38:56.709Z,1030.9
2023-02-01T15:44:50.339Z,1031
2023-02-01T15:50:21.248Z,1031
2023-02-01T15:55:55.747Z,1031.3
2023-02-01T16:01:26.847Z,1031.4
2023-02-01T16:06:47.142Z,1031.3
2023-02-01T16:12:25.887Z,1031.3
2023-02-01T16:18:13.386Z,1031.3
2023-02-01T16:23:48.827Z,1031.3
2023-02-01T16:29:26.190Z,1031.4
2023-02-01T16:35:07.650Z,1031.5
2023-02-01T16:40:18.162Z,1031.5
2023-02-01T16:45:52.443Z,1031.6
2023-02-01T16:51:29.883Z,1031.6
2023-02-01T16:57:03.928Z,1031.7
2023-02-01T17:02:36.665Z,1031.7
2023-02-01T17:08:25.324Z,1031.8
2023-02-01T17:13:43.934Z,1031.7
2023-02-01T17:19:27.730Z,1031.8
2023-02-01T17:25:09.812Z,1031.8
2023-02-01T17:30:43.308Z,1031.9
2023-02-01T17:36:10.741Z,1032.2
2023-02-01T17:41:35.256Z,1032.2
2023-02-01T17:47:21.694Z,1032.2
2023-02-01T17:52:56.139Z,1032.2
2023-02-01T17:58:31.667Z,1032.2
2023-02-01T18:04:13.573Z,1032.1
2023-02-01T18:09:47.531Z,1032.1
2023-02-01T18:15:13.157Z,1031.9
2023-02-01T18:20:43.842Z,1031.9
2023-02-01T18:26:27.997Z,1031.9
2023-02-01T18:31:55.519Z,1031.8
2023-02-01T18:37:17.189Z,1032
2023-02-01T18:43:10.688Z,1032
2023-02-01T18:48:20.280Z,1032.1
2023-02-01T18:54:06.457Z,1032.2
2023-02-01T18:59:29.067Z,1032.1
2023-02-01T19:04:59.267Z,1032.1
2023-02-01T19:10:33.786Z,1032.3
2023-02-01T19:16:27.662Z,1032.3
2023-02-01T19:21:58.772Z,1032.3
2023-02-01T19:27:17.347Z,1032.3
2023-02-01T19:32:54.120Z,1032.3
2023-02-01T19:38:40.517Z,1032.1
2023-02-01T19:44:15.126Z,1032.2
2023-02-01T19:49:45.866Z,1032.1
2023-02-01T19:55:07.078Z,1032.2
2023-02-01T20:00:51.518Z,1032.2
2023-02-01T20:06:13.224Z,1032.2
2023-02-01T20:11:56.308Z,1032.3
2023-02-01T20:17:23.565Z,1032.3
2023-02-01T20:23:02.038Z,1032.4
2023-02-01T20:28:44.677Z,1032.4
2023-02-01T20:34:20.939Z,1032.5
2023-02-01T20:39:53.102Z,1032.6
2023-02-01T20:45:34.628Z,1032.7
2023-02-01T20:50:54.272Z,1032.7
2023-02-01T20:56:36.940Z,1032.7
2023-02-01T21:02:01.769Z,1032.7
2023-02-01T21:13:05.315Z,1032.7
2023-02-01T21:18:35.002Z,1032.7
2023-02-01T21:24:32.387Z,1032.6
2023-02-01T21:29:41.704Z,1032.7
2023-02-01T21:35:17.909Z,1032.6
2023-02-01T21:41:10.510Z,1032.7
2023-02-01T21:46:25.165Z,1032.8
2023-02-01T21:52:21.720Z,1032.8
2023-02-01T21:57:47.788Z,1032.8
2023-02-01T22:03:17.810Z,1032.8
2023-02-01T22:09:01.430Z,1032.9
2023-02-01T22:14:37.997Z,1033
2023-02-01T22:20:09.488Z,1032.9
2023-02-01T22:25:38.759Z,1033.1
2023-02-01T22:31:04.550Z,1033
2023-02-01T22:36:41.414Z,1032.9
2023-02-01T22:42:17.709Z,1033
2023-02-01T22:47:51.038Z,1033
2023-02-01T22:53:26.550Z,1033.1
2023-02-01T22:59:09.704Z,1033
2023-02-01T23:04:18.206Z,1033
2023-02-01T23:10:14.737Z,1032.9
2023-02-01T23:15:43.204Z,1032.9
2023-02-01T23:21:22.754Z,1032.9
2023-02-01T23:26:46.416Z,1032.8
2023-02-01T23:32:18.596Z,1032.7
2023-02-01T23:38:10.003Z,1032.6
2023-02-01T23:43:20.248Z,1032.6
2023-02-01T23:49:15.749Z,1032.6
2023-02-01T23:54:46.971Z,1032.7
